Nearby METAR Reports

 

EGEO - Oban, United Kingdom
Distance from station: SSW 18mi, 30km
Updated: 19/06/2019 10:50
Mostly cloudy
Mostly cloudy
 Wind from SSW
Wind: SSW 12 mph , 19 km/h
Temperature: 13°C
Dew Point: 10°C
Humidity: 82%
Barometer: 1006 hPa
Clouds: Mostly cloudy
Visibility: 6 miles , 10 km
Cloud details: Few Clouds 518 m
Partly cloudy 732 m
Mostly cloudy 1341 m
2019/06/19 09:50 EGEO 190950Z 20010KT 9999 FEW017 SCT024 BKN044 13/10 Q1006
EGPU - Tiree, United Kingdom
Distance from station: WSW 64mi, 103km
Updated: 19/06/2019 10:20
Partly cloudy
Partly cloudy
 Wind from SW
Wind: SW 17 mph , 28 km/h
Temperature: 12°C
Dew Point: 10°C
Humidity: 88%
Barometer: 1005 hPa
Clouds: Partly cloudy
Visibility: 6 miles , 10 km
Cloud details: Few Clouds 366 m
Partly cloudy 640 m
2019/06/19 09:20 EGPU 190920Z 22015KT 9999 FEW012 SCT021 12/10 Q1005
EGPF - Glasgow, United Kingdom
Distance from station: SSE 66mi, 107km
Updated: 19/06/2019 10:50
Mostly cloudy
Mostly cloudy
 Wind from SW
Wind: SW 14 mph , 22 km/h
Temperature: 16°C
Dew Point: 9°C
Humidity: 63%
Barometer: 1007 hPa
Clouds: Mostly cloudy
Visibility: 6 miles , 10 km
Cloud details: Few Clouds 914 m
Mostly cloudy 1463 m
2019/06/19 09:50 EGPF 190950Z AUTO 23012KT 9999 FEW030 BKN048 16/09 Q1007
 
EGPE - Inverness, United Kingdom
Distance from station: NE 71mi, 114km
Updated: 19/06/2019 10:50
Partly cloudy
Partly cloudy
 Wind from SW
Wind: SW 15 mph , 24 km/h
Temperature: 16°C
Dew Point: 10°C
Humidity: 68%
Barometer: 1004 hPa
Clouds: Partly cloudy
Visibility: 6 miles , 10 km
Cloud details: Few Clouds 975 m
Partly cloudy 1463 m
2019/06/19 09:50 EGPE 190950Z 23013KT 9999 FEW032 SCT048 16/10 Q1004
EGPI - Islay/Port Ellen, United Kingdom
Distance from station: SSW 81mi, 131km
Updated: 19/06/2019 10:50
Clear
Clear
 Wind from SW
Wind: SW 15 mph , 24 km/h
Temperature: 14°C
Dew Point: 11°C
Humidity: 82%
Barometer: 1006 hPa
Summary: Clear
Visibility: greater than 7 miles , 10 km
2019/06/19 09:50 EGPI 190950Z 22013KT CAVOK 14/11 Q1006
EGPN - Dundee/Riverside, United Kingdom
Distance from station: E 86mi, 138km
Updated: 19/06/2019 10:50
Few Clouds
Few Clouds
 Wind from varies
Wind: varies 2 mph , 4 km/h
Temperature: 17°C
Dew Point: 12°C
Humidity: 73%
Barometer: 1006 hPa
Clouds: Few Clouds
Visibility: 6 miles , 10 km
Cloud details: Few Clouds 1372 m
2019/06/19 09:50 EGPN 190950Z VRB02KT 9999 FEW045 17/12 Q1006
 
EGPK - Prestwick, United Kingdom
Distance from station: SSE 88mi, 141km
Updated: 19/06/2019 10:50
Few Clouds
Few Clouds
 Wind from SW
Wind: SW 13 mph , 20 km/h
Temperature: 15°C
Dew Point: 10°C
Humidity: 72%
Barometer: 1007 hPa
Clouds: Few Clouds
Visibility: 6 miles , 10 km
Cloud details: Few Clouds 853 m
2019/06/19 09:50 EGPK 190950Z 22011KT 9999 FEW028 15/10 Q1007
EGPH - Edinburgh, United Kingdom
Distance from station: SE 89mi, 143km
Updated: 19/06/2019 10:50
Partly cloudy
Partly cloudy
 Wind from varies
Wind: varies 5 mph , 7 km/h
Temperature: 17°C
Dew Point: 11°C
Humidity: 68%
Barometer: 1006 hPa
Clouds: Partly cloudy
Visibility: 6 miles , 10 km
Cloud details: Partly cloudy 792 m
2019/06/19 09:50 EGPH 190950Z VRB04KT 9999 SCT026 17/11 Q1006
EGQK - RAF Kinloss, United Kingdom
Distance from station: NE 90mi, 144km
Updated: 19/06/2019 09:50
Mostly cloudy
Mostly cloudy
 Wind from WSW
Wind: WSW 13 mph , 20 km/h
Temperature: 16°C
Dew Point: 7°C
Humidity: 55%
Barometer: 1004 hPa
Clouds: Mostly cloudy
Visibility: 6 miles , 10 km
Cloud details: Mostly cloudy 1524 m
Mostly cloudy 4267 m
2019/06/19 08:50 EGQK 190850Z AUTO 24011KT 9999 BKN050/// BKN140/// 16/07 Q1004
 
EGEC - Campbeltown, United Kingdom
Distance from station: S 90mi, 145km
Updated: 19/06/2019 10:50
Mostly cloudy
Mostly cloudy
 Wind from WSW
Wind: WSW 10 mph , 17 km/h
Clouds: Mostly cloudy
Visibility: 6 miles , 10 km
Cloud details: Mostly cloudy 1402 m
2019/06/19 09:50 EGEC 190950Z 24009KT 9999 BKN046 ///// Q////
EGQA - Tain Range, United Kingdom
Distance from station: NNE 91mi, 146km
Updated: 19/06/2019 09:50
Partly cloudy
Partly cloudy
 Wind from S
Wind: S 12 mph , 19 km/h
Clouds: Partly cloudy
Visibility: 6 miles , 10 km
Cloud details: Few Clouds 610 m
Partly cloudy 914 m
2019/06/19 08:50 EGQA 190850Z 19010KT 9999 FEW020 SCT030 13/// Q1005 RMK BLU
EGQL - RAF Leuchars, United Kingdom
Distance from station: ESE 93mi, 149km
Updated: 19/06/2019 10:50
Partly cloudy
Partly cloudy
 Wind from W
Wind: W 12 mph , 19 km/h
Temperature: 15°C
Dew Point: 10°C
Humidity: 72%
Barometer: 1006 hPa
Clouds: Partly cloudy
Visibility: 6 miles , 10 km
Cloud details: Few Clouds 610 m
Partly cloudy 1524 m
2019/06/19 09:50 EGQL 190950Z 26010KT 9999 FEW020 SCT050 15/10 Q1006 RMK BLU
 
EGPL - Benbecula, United Kingdom
Distance from station: WNW 96mi, 154km
Updated: 19/06/2019 10:50
Partly cloudy
Partly cloudy
 Wind from SW
Wind: SW 20 mph , 31 km/h
Temperature: 13°C
Dew Point: 10°C
Humidity: 82%
Barometer: 1003 hPa
Clouds: Partly cloudy
Visibility: 6 miles , 10 km
Cloud details: Few Clouds 549 m
Partly cloudy 1219 m
2019/06/19 09:50 EGPL 190950Z 22017KT 9999 FEW018 SCT040 13/10 Q1003
EGQS - RAF Lossiemouth, United Kingdom
Distance from station: NE 99mi, 160km
Updated: 19/06/2019 10:50
Mostly cloudy
Mostly cloudy
 Wind from SSW
Wind: SSW 13 mph , 20 km/h
Temperature: 16°C
Dew Point: 7°C
Humidity: 55%
Barometer: 1004 hPa
Clouds: Mostly cloudy
Visibility: 6 miles , 10 km
Cloud details: Few Clouds 1219 m
Mostly cloudy 1524 m
2019/06/19 09:50 EGQS 190950Z 21011KT 9999 FEW040 BKN050 16/07 Q1004 NOSIG RMK BLU BLU
EGPO - Stornoway, United Kingdom
Distance from station: NNW 111mi, 179km
Updated: 19/06/2019 10:50
Nearby showers, Mostly cloudy
Nearby showers, Mostly cloudy
 Wind from S
Wind: S 14 mph , 22 km/h
Temperature: 13°C
Dew Point: 10°C
Humidity: 82%
Barometer: 1003 hPa
Summary: Nearby Showers
Clouds: Mostly cloudy
Visibility: 6 miles , 10 km
Cloud details: Few Clouds 366 m
Mostly cloudy 549 m
2019/06/19 09:50 EGPO 190950Z 19012KT 9999 VCSH FEW012 BKN018 13/10 Q1003
 
EGPD - Aberdeen/Dyce, United Kingdom
Distance from station: ENE 118mi, 190km
Updated: 19/06/2019 10:50
Partly cloudy
Partly cloudy
 Wind from S
Wind: S 14 mph , 22 km/h
Temperature: 16°C
Dew Point: 9°C
Humidity: 63%
Barometer: 1006 hPa
Clouds: Partly cloudy
Visibility: 6 miles , 10 km
Cloud details: Partly cloudy 945 m
2019/06/19 09:50 EGPD 190950Z AUTO 18012KT 9999 SCT031 16/09 Q1006 NOSIG
EGAE - Eglinton/Londond, United Kingdom
Distance from station: SSW 138mi, 222km
Updated: 19/06/2019 10:50
Nearby showers, Partly cloudy
Nearby showers, Partly cloudy
 Wind from SW
Wind: SW 13 mph , 20 km/h
Temperature: 14°C
Dew Point: 12°C
Humidity: 88%
Barometer: 1007 hPa
Summary: Nearby Showers
Clouds: Partly cloudy
Visibility: 6 miles , 10 km
Cloud details: Partly cloudy 457 m
Partly cloudy 914 m
2019/06/19 09:50 EGAE 190950Z 23011KT 9999 VCSH SCT015 SCT030 14/12 Q1007
EGPC - Wick, United Kingdom
Distance from station: NNE 144mi, 232km
Updated: 19/06/2019 10:50
Few Clouds
Few Clouds
 Wind from S
Wind: S 12 mph , 19 km/h
Temperature: 14°C
Dew Point: 10°C
Humidity: 77%
Barometer: 1005 hPa
Clouds: Few Clouds
Visibility: 6 miles , 10 km
Cloud details: Few Clouds 488 m
2019/06/19 09:50 EGPC 190950Z 17010KT 9999 FEW016 14/10 Q1005

Metar display script from Saratoga-Weather.org